Reuver, Netherlands
Current Conditions -  °F | °C
As of 3:50 PM on Sunday 23 Nov 2014 (Local Time) from EDLN Reporting Station
Clear Clear  
Wind Chill: 54°   Ceiling: Unl
Heat Index: 54°   Visibility: 6mi
Dew Point: 46°   Wind: 9mph
Humidity: 77%   Direction: 150°SSE
Pressure: 29.97"   Gusts: NA
Location:  51.28°N, 6.08°E
Report Text: EDLN 231450Z 15008KT 120V190 CAVOK 12/08 Q1015 RMK ATIS Q
Loading
Personal Weather Stations






























Interactive Weather Map New forecast layout! Learn more

10-Day Weather Forecast

Advertisements
Track Severe Weather on mobile